createdAt,value
2018-11-06T00:00:50.328Z,100251.66
2018-11-06T00:03:37.379Z,100250.17
2018-11-06T00:06:06.361Z,100267.27
2018-11-06T00:08:35.255Z,100256.34
2018-11-06T00:11:04.197Z,100248.39
2018-11-06T00:13:33.088Z,100244.79
2018-11-06T00:16:02.010Z,100247.72
2018-11-06T00:18:30.933Z,100241.23
2018-11-06T00:20:59.826Z,100242.87
2018-11-06T00:23:28.803Z,100245.88
2018-11-06T00:25:57.705Z,100244.09
2018-11-06T00:28:26.615Z,100247.09
2018-11-06T00:30:55.538Z,100241.52
2018-11-06T00:33:24.496Z,100244.53
2018-11-06T00:35:53.377Z,100236.41
2018-11-06T00:38:22.314Z,100231.70
2018-11-06T00:40:51.220Z,100234.44
2018-11-06T00:43:20.144Z,100240.97
2018-11-06T00:45:49.091Z,100235.77
2018-11-06T00:48:18.019Z,100236.83
2018-11-06T00:50:46.912Z,100226.73
2018-11-06T00:53:15.877Z,100225.61
2018-11-06T00:55:44.823Z,100224.68
2018-11-06T00:58:13.688Z,100229.17
2018-11-06T01:00:42.628Z,100226.03
2018-11-06T01:03:11.572Z,100226.67
2018-11-06T01:05:40.473Z,100224.77
2018-11-06T01:08:09.438Z,100221.58
2018-11-06T01:10:38.346Z,100218.07
2018-11-06T01:13:07.294Z,100223.20
2018-11-06T01:15:36.194Z,100220.77
2018-11-06T01:18:05.408Z,100221.22
2018-11-06T01:20:34.344Z,100217.58
2018-11-06T01:23:03.290Z,100224.14
2018-11-06T01:25:32.221Z,100220.41
2018-11-06T01:28:01.133Z,100220.14
2018-11-06T01:30:30.018Z,100215.22
2018-11-06T01:32:58.937Z,100224.47
2018-11-06T01:35:27.858Z,100222.79
2018-11-06T01:37:56.779Z,100230.45
2018-11-06T01:40:25.691Z,100230.72
2018-11-06T01:42:54.607Z,100220.14
2018-11-06T01:45:23.523Z,100218.87
2018-11-06T01:47:52.524Z,100202.48
2018-11-06T01:50:21.363Z,100200.01
2018-11-06T01:52:50.308Z,100198.67
2018-11-06T01:55:19.222Z,100199.83
2018-11-06T01:57:48.137Z,100190.44
2018-11-06T02:00:18.386Z,100199.67
2018-11-06T02:02:47.583Z,100202.09
2018-11-06T02:05:17.589Z,100198.31
2018-11-06T02:07:47.741Z,100196.83
2018-11-06T02:10:17.113Z,100179.50
2018-11-06T02:12:46.770Z,100169.08
2018-11-06T02:15:15.662Z,100175.83
2018-11-06T02:17:45.225Z,100181.56
2018-11-06T02:20:14.935Z,100181.16
2018-11-06T02:22:44.649Z,100186.56
2018-11-06T02:25:14.043Z,100186.42
2018-11-06T02:27:43.057Z,100187.81
2018-11-06T02:30:13.673Z,100187.00
2018-11-06T02:32:43.480Z,100190.51
2018-11-06T02:35:12.357Z,100189.94
2018-11-06T02:37:41.277Z,100184.75
2018-11-06T02:40:11.870Z,100173.65
2018-11-06T02:42:41.285Z,100179.27
2018-11-06T02:45:11.017Z,100178.34
2018-11-06T02:47:40.382Z,100179.66
2018-11-06T02:50:10.062Z,100181.28
2018-11-06T02:52:39.012Z,100179.58
2018-11-06T02:55:08.437Z,100183.13
2018-11-06T02:57:37.445Z,100169.13
2018-11-06T03:00:08.302Z,100168.20
2018-11-06T03:02:37.211Z,100170.55
2018-11-06T03:05:06.811Z,100169.27
2018-11-06T03:07:35.675Z,100174.59
2018-11-06T03:10:04.737Z,100175.45
2018-11-06T03:12:33.580Z,100180.48
2018-11-06T03:15:02.545Z,100183.94
2018-11-06T03:17:31.460Z,100198.23
2018-11-06T03:20:00.414Z,100193.94
2018-11-06T03:22:29.344Z,100196.35
2018-11-06T03:24:58.317Z,100192.27
2018-11-06T03:27:27.234Z,100190.41
2018-11-06T03:29:56.171Z,100185.18
2018-11-06T03:32:25.094Z,100191.87
2018-11-06T03:34:53.998Z,100182.94
2018-11-06T03:37:22.941Z,100190.41
2018-11-06T03:39:51.883Z,100187.77
2018-11-06T03:42:21.032Z,100196.02
2018-11-06T03:44:49.937Z,100189.69
2018-11-06T03:47:18.873Z,100196.13
2018-11-06T03:49:47.836Z,100195.45
2018-11-06T03:52:16.765Z,100200.19
2018-11-06T03:54:45.694Z,100206.09
2018-11-06T03:57:14.620Z,100198.91
2018-11-06T03:59:43.601Z,100200.05
2018-11-06T04:02:12.560Z,100199.63
2018-11-06T04:04:41.521Z,100199.27
2018-11-06T04:07:10.420Z,100203.47
2018-11-06T04:09:39.344Z,100192.36
2018-11-06T04:12:08.295Z,100202.05
2018-11-06T04:14:37.198Z,100195.45
2018-11-06T04:17:06.143Z,100192.90
2018-11-06T04:19:35.043Z,100194.45
2018-11-06T04:22:03.976Z,100196.31
2018-11-06T04:24:32.870Z,100198.66
2018-11-06T04:27:01.839Z,100194.78
2018-11-06T04:29:30.751Z,100199.52
2018-11-06T04:31:59.672Z,100207.63
2018-11-06T04:34:28.585Z,100203.69
2018-11-06T04:36:57.519Z,100202.08
2018-11-06T04:39:26.435Z,100198.30
2018-11-06T04:41:55.352Z,100203.35
2018-11-06T04:44:24.272Z,100199.47
2018-11-06T04:46:53.176Z,100203.17
2018-11-06T04:49:22.436Z,100204.80
2018-11-06T04:51:52.476Z,100200.18
2018-11-06T04:54:21.408Z,100200.74
2018-11-06T04:56:50.287Z,100194.69
2018-11-06T04:59:19.220Z,100198.25
2018-11-06T05:01:48.144Z,100191.80
2018-11-06T05:04:17.036Z,100188.45
2018-11-06T05:06:45.972Z,100188.66
2018-11-06T05:09:14.875Z,100192.87
2018-11-06T05:11:43.793Z,100181.90
2018-11-06T05:14:12.838Z,100196.14
2018-11-06T05:16:41.725Z,100197.92
2018-11-06T05:19:10.642Z,100190.38
2018-11-06T05:21:39.600Z,100190.23
2018-11-06T05:24:08.538Z,100186.66
2018-11-06T05:26:37.484Z,100184.46
2018-11-06T05:29:06.369Z,100182.28
2018-11-06T05:31:35.294Z,100175.43
2018-11-06T05:34:04.189Z,100177.43
2018-11-06T05:36:33.122Z,100182.24
2018-11-06T05:39:02.158Z,100179.03
2018-11-06T05:41:30.986Z,100181.04
2018-11-06T05:43:59.940Z,100180.83
2018-11-06T05:46:28.816Z,100186.45
2018-11-06T05:48:57.730Z,100185.59
2018-11-06T05:51:26.721Z,100187.60
2018-11-06T05:53:55.622Z,100196.58
2018-11-06T05:56:24.527Z,100208.27
2018-11-06T05:58:53.468Z,100201.70
2018-11-06T06:01:22.375Z,100193.37
2018-11-06T06:03:51.321Z,100191.52
2018-11-06T06:06:20.236Z,100199.64
2018-11-06T06:08:49.172Z,100196.93
2018-11-06T06:11:18.197Z,100197.08
2018-11-06T06:13:46.976Z,100200.42
2018-11-06T06:16:15.885Z,100199.13
2018-11-06T06:18:44.817Z,100205.78
2018-11-06T06:21:13.738Z,100204.13
2018-11-06T06:23:42.659Z,100208.48
2018-11-06T06:26:11.585Z,100214.88
2018-11-06T06:28:40.556Z,100214.52
2018-11-06T06:31:09.480Z,100227.70
2018-11-06T06:33:38.419Z,100226.95
2018-11-06T06:36:07.348Z,100226.77
2018-11-06T06:38:36.252Z,100232.69
2018-11-06T06:41:05.298Z,100231.77
2018-11-06T06:43:34.099Z,100232.98
2018-11-06T06:46:03.094Z,100232.41
2018-11-06T06:48:31.996Z,100232.92
2018-11-06T06:51:00.930Z,100229.30
2018-11-06T06:53:29.834Z,100236.39
2018-11-06T06:55:58.779Z,100237.25
2018-11-06T06:58:27.669Z,100235.34
2018-11-06T07:00:56.630Z,100233.69
2018-11-06T07:03:25.533Z,100235.48
2018-11-06T07:05:54.544Z,100239.25
2018-11-06T07:08:23.461Z,100238.69
2018-11-06T07:10:52.387Z,100234.28
2018-11-06T07:13:21.327Z,100244.16
2018-11-06T07:15:50.225Z,100243.95
2018-11-06T07:18:19.186Z,100243.43
2018-11-06T07:20:48.064Z,100244.45
2018-11-06T07:23:16.965Z,100253.00
2018-11-06T07:25:45.903Z,100255.58
2018-11-06T07:28:14.784Z,100263.64
2018-11-06T07:30:43.706Z,100271.41
2018-11-06T07:33:12.600Z,100271.55
2018-11-06T07:35:41.786Z,100273.49
2018-11-06T07:38:10.472Z,100261.37
2018-11-06T07:40:39.468Z,100272.88
2018-11-06T07:43:08.309Z,100273.52
2018-11-06T07:45:37.245Z,100272.03
2018-11-06T07:48:06.127Z,100270.73
2018-11-06T07:50:35.193Z,100268.07
2018-11-06T07:53:04.023Z,100287.09
2018-11-06T07:55:32.969Z,100281.48
2018-11-06T07:58:01.869Z,100281.03
2018-11-06T08:00:30.829Z,100283.25
2018-11-06T08:02:59.758Z,100277.67
2018-11-06T08:05:28.672Z,100279.94
2018-11-06T08:07:57.573Z,100277.93
2018-11-06T08:10:26.552Z,100277.16
2018-11-06T08:12:55.520Z,100275.03
2018-11-06T08:15:24.444Z,100274.53
2018-11-06T08:17:53.457Z,100273.53
2018-11-06T08:20:22.300Z,100272.36
2018-11-06T08:22:51.181Z,100272.98
2018-11-06T08:25:20.075Z,100283.58
2018-11-06T08:27:49.112Z,100287.14
2018-11-06T08:30:17.870Z,100288.22
2018-11-06T08:32:47.042Z,100295.35
2018-11-06T08:35:16.905Z,100294.03
2018-11-06T08:37:45.807Z,100300.61
2018-11-06T08:40:16.019Z,100290.38
2018-11-06T08:42:44.945Z,100291.16
2018-11-06T08:45:14.933Z,100290.16
2018-11-06T08:47:44.439Z,100287.84
2018-11-06T08:50:14.765Z,100284.20
2018-11-06T08:52:43.773Z,100284.86
2018-11-06T08:55:13.926Z,100278.77
2018-11-06T08:57:43.580Z,100274.05
2018-11-06T09:00:14.587Z,100275.75
2018-11-06T09:02:44.827Z,100275.07
2018-11-06T09:05:15.418Z,100276.97
2018-11-06T09:07:45.221Z,100274.59
2018-11-06T09:10:15.111Z,100269.12
2018-11-06T09:12:44.087Z,100281.04
2018-11-06T09:15:14.690Z,100276.77
2018-11-06T09:17:43.554Z,100269.78
2018-11-06T09:20:13.746Z,100273.95
2018-11-06T09:22:42.708Z,100270.69
2018-11-06T09:25:12.891Z,100277.02
2018-11-06T09:27:42.547Z,100276.06
2018-11-06T09:30:16.393Z,100272.25
2018-11-06T09:32:45.349Z,100272.62
2018-11-06T09:35:14.818Z,100272.65
2018-11-06T09:37:44.158Z,100266.89
2018-11-06T09:40:17.241Z,100267.91
2018-11-06T09:42:46.209Z,100258.52
2018-11-06T09:45:15.214Z,100257.76
2018-11-06T09:47:44.190Z,100264.13
2018-11-06T09:50:14.450Z,100258.05
2018-11-06T09:52:44.128Z,100257.09
2018-11-06T09:55:13.373Z,100256.77
2018-11-06T09:57:42.391Z,100253.55
2018-11-06T10:00:13.412Z,100255.91
2018-11-06T10:02:42.416Z,100256.86
2018-11-06T10:05:12.194Z,100253.73
2018-11-06T10:07:41.148Z,100254.06
2018-11-06T10:10:12.078Z,100257.53
2018-11-06T10:12:41.419Z,100259.91
2018-11-06T10:15:12.361Z,100264.45
2018-11-06T10:17:42.358Z,100259.52
2018-11-06T10:20:12.108Z,100260.30
2018-11-06T10:22:41.081Z,100263.36
2018-11-06T10:25:10.076Z,100266.05
2018-11-06T10:27:39.597Z,100267.80
2018-11-06T10:30:10.738Z,100275.95
2018-11-06T10:32:39.649Z,100269.22
2018-11-06T10:35:09.351Z,100262.30
2018-11-06T10:37:38.342Z,100267.66
2018-11-06T10:40:13.480Z,100264.53
2018-11-06T10:42:42.867Z,100258.91
2018-11-06T10:45:11.816Z,100249.22
2018-11-06T10:47:40.803Z,100247.47
2018-11-06T10:50:11.389Z,100241.63
2018-11-06T10:52:40.649Z,100233.31
2018-11-06T10:55:09.884Z,100234.49
2018-11-06T10:57:39.811Z,100230.20
2018-11-06T11:00:29.358Z,100221.58
2018-11-06T11:03:15.853Z,100214.67
2018-11-06T11:05:44.774Z,100224.05
2018-11-06T11:08:13.692Z,100215.05
2018-11-06T11:10:42.629Z,100212.58
2018-11-06T11:13:11.534Z,100201.62
2018-11-06T11:15:40.458Z,100208.47
2018-11-06T11:18:09.435Z,100200.68
2018-11-06T11:20:38.423Z,100203.81
2018-11-06T11:23:07.427Z,100187.36
2018-11-06T11:25:36.401Z,100182.31
2018-11-06T11:28:05.326Z,100180.27
2018-11-06T11:30:34.222Z,100174.56
2018-11-06T11:33:03.171Z,100179.72
2018-11-06T11:35:32.085Z,100184.77
2018-11-06T11:38:01.019Z,100181.12
2018-11-06T11:40:29.915Z,100173.97
2018-11-06T11:42:58.846Z,100171.81
2018-11-06T11:45:27.780Z,100174.23
2018-11-06T11:47:56.688Z,100176.17
2018-11-06T11:50:25.611Z,100175.06
2018-11-06T11:52:54.521Z,100161.36
2018-11-06T11:55:23.439Z,100166.62
2018-11-06T11:57:52.378Z,100160.83
2018-11-06T12:00:21.700Z,100161.51
2018-11-06T12:02:50.641Z,100161.27
2018-11-06T12:05:19.541Z,100160.42
2018-11-06T12:07:48.432Z,100156.17
2018-11-06T12:10:17.345Z,100159.86
2018-11-06T12:12:46.209Z,100153.35
2018-11-06T12:15:16.479Z,100154.20
2018-11-06T12:17:46.160Z,100155.95
2018-11-06T12:20:15.563Z,100152.76
2018-11-06T12:22:44.461Z,100155.27
2018-11-06T12:25:14.085Z,100152.23
2018-11-06T12:27:42.983Z,100159.99
2018-11-06T12:30:16.771Z,100163.31
2018-11-06T12:32:45.850Z,100157.08
2018-11-06T12:35:14.968Z,100161.23
2018-11-06T12:37:43.905Z,100162.30
2018-11-06T12:40:13.579Z,100160.80
2018-11-06T12:42:42.885Z,100157.11
2018-11-06T12:45:13.125Z,100157.05
2018-11-06T12:47:42.414Z,100160.70
2018-11-06T12:50:11.414Z,100163.42
2018-11-06T12:52:40.733Z,100161.70
2018-11-06T12:55:11.190Z,100154.28
2018-11-06T12:57:40.169Z,100159.20
2018-11-06T13:00:12.319Z,100153.56
2018-11-06T13:02:41.251Z,100149.47
2018-11-06T13:05:10.765Z,100150.59
2018-11-06T13:07:41.249Z,100147.78
2018-11-06T13:10:11.287Z,100139.11
2018-11-06T13:12:40.701Z,100136.94
2018-11-06T13:15:09.852Z,100128.22
2018-11-06T13:17:38.984Z,100123.25
2018-11-06T13:20:09.957Z,100129.38
2018-11-06T13:22:40.062Z,100122.09
2018-11-06T13:25:09.228Z,100118.64
2018-11-06T13:27:39.360Z,100126.47
2018-11-06T13:30:10.770Z,100115.30
2018-11-06T13:32:40.808Z,100114.83
2018-11-06T13:35:10.316Z,100106.94
2018-11-06T13:37:39.678Z,100104.93
2018-11-06T13:40:10.901Z,100106.01
2018-11-06T13:42:39.968Z,100110.92
2018-11-06T13:45:11.637Z,100112.23
2018-11-06T13:47:40.433Z,100113.84
2018-11-06T13:50:09.355Z,100119.94
2018-11-06T13:52:38.553Z,100111.48
2018-11-06T13:55:08.689Z,100109.79
2018-11-06T13:57:37.601Z,100111.55
2018-11-06T14:00:10.338Z,100111.03
2018-11-06T14:02:39.261Z,100115.58
2018-11-06T14:05:08.172Z,100106.80
2018-11-06T14:07:37.095Z,100117.80
2018-11-06T14:10:06.345Z,100115.36
2018-11-06T14:12:35.281Z,100112.93
2018-11-06T14:15:04.181Z,100108.52
2018-11-06T14:17:33.071Z,100108.09
2018-11-06T14:20:02.002Z,100113.52
2018-11-06T14:22:31.196Z,100109.17
2018-11-06T14:25:00.104Z,100115.50
2018-11-06T14:27:29.161Z,100123.08
2018-11-06T14:29:57.976Z,100124.50
2018-11-06T14:32:26.863Z,100125.77
2018-11-06T14:34:55.843Z,100119.64
2018-11-06T14:37:25.110Z,100121.54
2018-11-06T14:39:54.026Z,100126.21
2018-11-06T14:42:22.981Z,100121.76
2018-11-06T14:44:51.818Z,100121.67
2018-11-06T14:47:20.723Z,100113.09
2018-11-06T14:49:49.639Z,100109.00
2018-11-06T14:52:18.556Z,100111.30
2018-11-06T14:54:47.472Z,100107.82
2018-11-06T14:57:16.389Z,100105.41
2018-11-06T14:59:45.331Z,100107.48
2018-11-06T15:02:14.217Z,100106.25
2018-11-06T15:04:43.137Z,100110.24
2018-11-06T15:07:12.064Z,100111.50
2018-11-06T15:09:41.013Z,100112.16
2018-11-06T15:12:09.956Z,100111.50
2018-11-06T15:14:38.920Z,100113.84
2018-11-06T15:17:07.878Z,100118.99
2018-11-06T15:19:37.010Z,100122.75
2018-11-06T15:22:05.942Z,100131.09
2018-11-06T15:24:34.854Z,100123.77
2018-11-06T15:27:03.782Z,100119.98
2018-11-06T15:29:32.716Z,100119.92
2018-11-06T15:32:01.657Z,100116.94
2018-11-06T15:34:30.596Z,100113.55
2018-11-06T15:36:59.557Z,100113.61
2018-11-06T15:39:28.605Z,100115.88
2018-11-06T15:41:57.640Z,100115.00
2018-11-06T15:44:26.383Z,100111.97
2018-11-06T15:46:55.330Z,100106.70
2018-11-06T15:49:24.294Z,100107.15
2018-11-06T15:51:53.213Z,100108.74
2018-11-06T15:54:22.197Z,100112.03
2018-11-06T15:56:51.055Z,100110.22
2018-11-06T15:59:20.033Z,100111.55
2018-11-06T16:01:49.070Z,100124.25
2018-11-06T16:04:17.970Z,100114.90
2018-11-06T16:06:46.908Z,100116.01
2018-11-06T16:09:15.804Z,100113.77
2018-11-06T16:11:45.372Z,100122.98
2018-11-06T16:14:14.832Z,100121.80
2018-11-06T16:16:44.304Z,100121.08
2018-11-06T16:19:13.231Z,100121.80
2018-11-06T16:21:42.200Z,100119.81
2018-11-06T16:24:11.168Z,100120.78
2018-11-06T16:26:40.067Z,100122.45
2018-11-06T16:29:09.025Z,100117.94
2018-11-06T16:31:38.006Z,100122.78
2018-11-06T16:34:06.952Z,100124.55
2018-11-06T16:36:35.881Z,100127.83
2018-11-06T16:39:07.737Z,100126.58
2018-11-06T16:41:36.775Z,100126.94
2018-11-06T16:44:05.667Z,100125.06
2018-11-06T16:46:34.539Z,100131.22
2018-11-06T16:49:03.472Z,100130.11
2018-11-06T16:51:32.400Z,100126.88
2018-11-06T16:54:01.339Z,100130.11
2018-11-06T16:56:30.291Z,100128.44
2018-11-06T16:58:59.241Z,100136.17
2018-11-06T17:01:28.319Z,100135.66
2018-11-06T17:03:57.276Z,100134.54
2018-11-06T17:06:35.355Z,100137.27
2018-11-06T17:09:06.198Z,100132.72
2018-11-06T17:11:35.088Z,100137.57
2018-11-06T17:14:04.049Z,100137.30
2018-11-06T17:16:33.228Z,100141.23
2018-11-06T17:19:02.180Z,100141.75
2018-11-06T17:21:31.111Z,100140.59
2018-11-06T17:24:00.059Z,100134.11
2018-11-06T17:26:29.060Z,100130.16
2018-11-06T17:28:58.015Z,100133.96
2018-11-06T17:31:27.112Z,100128.98
2018-11-06T17:33:56.052Z,100131.17
2018-11-06T17:36:24.969Z,100131.83
2018-11-06T17:38:53.911Z,100128.41
2018-11-06T17:41:22.873Z,100127.73
2018-11-06T17:43:51.838Z,100137.64
2018-11-06T17:46:20.855Z,100137.64
2018-11-06T17:48:50.123Z,100134.91
2018-11-06T17:51:19.059Z,100138.38
2018-11-06T17:53:48.013Z,100140.83
2018-11-06T17:56:17.014Z,100139.01
2018-11-06T17:58:46.119Z,100138.02
2018-11-06T18:01:15.096Z,100145.39
2018-11-06T18:03:44.048Z,100144.30
2018-11-06T18:06:13.014Z,100149.31
2018-11-06T18:08:41.948Z,100145.79
2018-11-06T18:11:10.880Z,100153.01
2018-11-06T18:13:39.947Z,100160.01
2018-11-06T18:16:08.900Z,100150.09
2018-11-06T18:18:37.885Z,100153.27
2018-11-06T18:21:06.924Z,100151.12
2018-11-06T18:23:35.850Z,100157.61
2018-11-06T18:26:04.771Z,100155.98
2018-11-06T18:28:33.894Z,100151.41
2018-11-06T18:31:02.877Z,100152.80
2018-11-06T18:33:31.875Z,100152.28
2018-11-06T18:36:00.823Z,100159.08
2018-11-06T18:38:29.895Z,100158.72
2018-11-06T18:40:58.740Z,100164.20
2018-11-06T18:43:27.706Z,100162.47
2018-11-06T18:45:56.612Z,100157.38
2018-11-06T18:48:25.564Z,100159.09
2018-11-06T18:50:54.502Z,100165.06
2018-11-06T18:53:23.480Z,100167.02
2018-11-06T18:55:52.394Z,100165.02
2018-11-06T18:58:21.433Z,100158.20
2018-11-06T19:00:50.334Z,100156.16
2018-11-06T19:03:19.268Z,100155.31
2018-11-06T19:05:48.212Z,100158.14
2018-11-06T19:08:17.226Z,100158.81
2018-11-06T19:10:46.278Z,100159.69
2018-11-06T19:13:15.164Z,100155.98
2018-11-06T19:15:44.103Z,100158.38
2018-11-06T19:18:13.048Z,100166.69
2018-11-06T19:20:41.964Z,100177.47
2018-11-06T19:23:10.942Z,100182.09
2018-11-06T19:25:39.852Z,100181.58
2018-11-06T19:28:08.817Z,100182.45
2018-11-06T19:30:37.828Z,100176.98
2018-11-06T19:33:06.936Z,100173.11
2018-11-06T19:35:35.905Z,100177.55
2018-11-06T19:38:04.889Z,100176.70
2018-11-06T19:40:33.919Z,100173.13
2018-11-06T19:43:02.939Z,100175.36
2018-11-06T19:45:31.765Z,100176.96
2018-11-06T19:48:00.703Z,100183.83
2018-11-06T19:50:29.623Z,100177.70
2018-11-06T19:52:58.743Z,100176.55
2018-11-06T19:55:27.790Z,100169.36
2018-11-06T19:57:56.746Z,100171.55
2018-11-06T20:00:25.701Z,100173.61
2018-11-06T20:02:54.950Z,100175.31
2018-11-06T20:05:23.964Z,100176.67
2018-11-06T20:07:53.284Z,100195.06
2018-11-06T20:10:23.760Z,100189.78
2018-11-06T20:12:53.838Z,100191.84
2018-11-06T20:15:22.924Z,100194.34
2018-11-06T20:17:51.984Z,100200.45
2018-11-06T20:20:25.132Z,100193.75
2018-11-06T20:22:54.125Z,100183.88
2018-11-06T20:25:23.205Z,100188.03
2018-11-06T20:27:52.190Z,100191.94
2018-11-06T20:30:22.490Z,100192.74
2018-11-06T20:32:51.399Z,100192.79
2018-11-06T20:35:20.499Z,100196.19
2018-11-06T20:37:49.500Z,100195.85
2018-11-06T20:40:19.837Z,100189.73
2018-11-06T20:42:48.955Z,100194.44
2018-11-06T20:45:18.896Z,100199.72
2018-11-06T20:47:47.838Z,100205.39
2018-11-06T20:50:17.990Z,100208.11
2018-11-06T20:52:47.252Z,100212.21
2018-11-06T20:55:16.926Z,100207.78
2018-11-06T20:57:46.155Z,100217.85
2018-11-06T21:00:29.080Z,100217.72
2018-11-06T21:03:02.053Z,100215.86
2018-11-06T21:05:30.972Z,100218.58
2018-11-06T21:07:59.963Z,100214.67
2018-11-06T21:10:30.293Z,100211.09
2018-11-06T21:12:59.311Z,100211.43
2018-11-06T21:15:28.263Z,100214.71
2018-11-06T21:17:57.413Z,100212.39
2018-11-06T21:20:26.679Z,100217.84
2018-11-06T21:22:55.560Z,100211.01
2018-11-06T21:25:24.842Z,100220.75
2018-11-06T21:27:53.672Z,100210.92
2018-11-06T21:30:22.652Z,100209.39
2018-11-06T21:32:52.627Z,100215.02
2018-11-06T21:35:21.612Z,100211.61
2018-11-06T21:37:50.638Z,100210.52
2018-11-06T21:40:20.853Z,100215.83
2018-11-06T21:42:50.131Z,100204.11
2018-11-06T21:45:19.441Z,100205.31
2018-11-06T21:47:49.241Z,100202.58
2018-11-06T21:50:18.683Z,100204.62
2018-11-06T21:52:47.632Z,100204.16
2018-11-06T21:55:17.758Z,100212.88
2018-11-06T21:57:46.786Z,100207.30
2018-11-06T22:00:19.856Z,100207.05
2018-11-06T22:02:48.748Z,100203.98
2018-11-06T22:05:18.953Z,100199.34
2018-11-06T22:07:48.320Z,100203.44
2018-11-06T22:10:18.616Z,100202.28
2018-11-06T22:12:47.622Z,100208.59
2018-11-06T22:15:17.602Z,100204.91
2018-11-06T22:17:46.653Z,100211.86
2018-11-06T22:20:16.791Z,100217.47
2018-11-06T22:22:46.339Z,100210.50
2018-11-06T22:25:15.286Z,100208.11
2018-11-06T22:27:44.527Z,100211.69
2018-11-06T22:30:14.628Z,100213.19
2018-11-06T22:32:44.258Z,100207.27
2018-11-06T22:35:14.366Z,100209.52
2018-11-06T22:37:43.383Z,100208.41
2018-11-06T22:40:13.571Z,100209.94
2018-11-06T22:42:42.540Z,100213.31
2018-11-06T22:45:12.995Z,100216.92
2018-11-06T22:47:42.061Z,100216.42
2018-11-06T22:50:12.830Z,100215.39
2018-11-06T22:52:42.230Z,100212.97
2018-11-06T22:55:11.192Z,100208.94
2018-11-06T22:57:40.132Z,100218.70
2018-11-06T23:00:18.029Z,100210.72
2018-11-06T23:02:46.952Z,100207.00
2018-11-06T23:05:15.910Z,100208.70
2018-11-06T23:08:02.487Z,100208.50
2018-11-06T23:10:31.445Z,100209.39
2018-11-06T23:13:00.351Z,100213.31
2018-11-06T23:15:29.311Z,100210.24
2018-11-06T23:17:58.289Z,100203.77
2018-11-06T23:20:27.277Z,100207.14
2018-11-06T23:22:56.162Z,100209.86
2018-11-06T23:25:25.084Z,100212.12
2018-11-06T23:27:54.024Z,100214.80
2018-11-06T23:30:22.939Z,100217.69
2018-11-06T23:32:51.884Z,100214.80
2018-11-06T23:35:20.813Z,100212.97
2018-11-06T23:37:49.783Z,100218.72
2018-11-06T23:40:18.708Z,100216.16
2018-11-06T23:42:47.651Z,100221.99
2018-11-06T23:45:16.585Z,100214.20
2018-11-06T23:47:45.528Z,100219.52
2018-11-06T23:50:14.488Z,100219.86
2018-11-06T23:52:43.399Z,100222.41
2018-11-06T23:55:12.399Z,100230.81
2018-11-06T23:57:47.776Z,100231.14
